Time;durP1;ratioP1;P1;durP2;ratioP2;P2;SDS_P1;SDS_P2;PMS_P1;PMS_P2;Temp;Humidity;BMP_temperature;BMP_pressure;BME280_temperature;BME280_humidity;BME280_pressure;Samples;Min_cycle;Max_cycle;Signal;HPM_P1;HPM_P2
2022/03/11 00:01:04;;;;;;;;;27.25;23.50;;;;;12.39;51.34;101049.34;5051068;28;45546;-70
2022/03/11 00:03:30;;;;;;;;;30.00;21.00;;;;;12.37;51.40;101051.25;5051138;28;45389;-70
2022/03/11 00:05:56;;;;;;;;;28.50;19.75;;;;;12.32;51.41;101048.03;5048291;28;45316;-71
2022/03/11 00:08:21;;;;;;;;;25.00;22.25;;;;;12.30;51.39;101042.84;5049566;28;45427;-71
2022/03/11 00:10:47;;;;;;;;;25.50;22.25;;;;;12.30;51.56;101040.22;5049151;28;45352;-71
2022/03/11 00:13:13;;;;;;;;;31.25;21.00;;;;;12.28;51.65;101028.91;5049481;28;45391;-71
2022/03/11 00:15:39;;;;;;;;;24.25;21.00;;;;;12.26;51.48;101031.63;5050960;28;45410;-70
2022/03/11 00:18:05;;;;;;;;;26.00;21.00;;;;;12.25;51.39;101026.47;5049181;28;45518;-71
2022/03/11 00:20:31;;;;;;;;;25.25;20.00;;;;;12.21;51.56;101025.78;5047382;28;46212;-71
2022/03/11 00:22:57;;;;;;;;;22.25;21.25;;;;;12.21;51.71;101031.06;5049185;28;45471;-71
2022/03/11 00:25:22;;;;;;;;;21.75;19.00;;;;;12.19;51.90;101027.69;5051038;28;45214;-71
2022/03/11 00:27:48;;;;;;;;;23.75;22.00;;;;;12.19;51.96;101022.41;5048936;28;45207;-71
2022/03/11 00:30:14;;;;;;;;;25.75;20.00;;;;;12.24;52.02;101027.38;5053559;28;45447;-71
2022/03/11 00:32:40;;;;;;;;;17.50;16.25;;;;;12.27;52.09;101012.22;5051226;28;45437;-71
2022/03/11 00:35:09;;;;;;;;;23.50;20.25;;;;;12.33;52.06;101021.56;5049839;28;45310;-72
2022/03/11 00:37:37;;;;;;;;;25.50;21.50;;;;;12.36;51.99;101012.56;5050808;28;45547;-71
2022/03/11 00:40:04;;;;;;;;;21.25;17.75;;;;;12.39;51.81;101009.72;5050405;28;45461;-71
2022/03/11 00:42:29;;;;;;;;;24.25;19.25;;;;;12.41;51.79;101006.06;5049447;28;45529;-71
2022/03/11 00:44:55;;;;;;;;;20.25;19.00;;;;;12.43;51.92;101005.97;5049011;28;45430;-71
2022/03/11 00:47:20;;;;;;;;;21.25;18.25;;;;;12.44;51.84;101005.03;5049403;28;45474;-71
2022/03/11 00:49:46;;;;;;;;;28.00;22.00;;;;;12.42;51.83;101004.28;5051069;28;46009;-71
2022/03/11 00:52:11;;;;;;;;;28.25;19.75;;;;;12.41;52.09;101005.22;5049836;28;45383;-71
2022/03/11 00:54:37;;;;;;;;;24.50;23.50;;;;;12.40;51.89;101000.84;5046610;28;45371;-71
2022/03/11 00:57:03;;;;;;;;;28.75;21.50;;;;;12.36;52.05;100991.44;5049872;28;45282;-71
2022/03/11 00:59:28;;;;;;;;;25.75;22.75;;;;;12.32;51.92;100993.41;5049332;28;46045;-70
2022/03/11 01:01:54;;;;;;;;;24.50;21.25;;;;;12.28;51.99;100987.47;5049756;28;45303;-70
2022/03/11 01:04:19;;;;;;;;;29.25;24.25;;;;;12.25;51.93;100982.41;5052572;28;45220;-70
2022/03/11 01:06:45;;;;;;;;;26.25;21.25;;;;;12.23;52.29;100981.63;5051152;28;45275;-70
2022/03/11 01:09:10;;;;;;;;;17.00;14.25;;;;;12.18;52.08;100967.88;5051328;28;45964;-70
2022/03/11 01:11:36;;;;;;;;;19.75;17.25;;;;;12.16;52.07;100968.91;5031652;28;45206;-70
2022/03/11 01:14:03;;;;;;;;;23.75;21.50;;;;;12.16;52.28;100975.03;5046945;28;45253;-70
2022/03/11 01:16:28;;;;;;;;;23.25;16.75;;;;;12.16;52.38;100969.75;5049271;28;45363;-71
2022/03/11 01:18:54;;;;;;;;;23.75;22.00;;;;;12.19;52.63;100974.00;5046828;28;46329;-70
2022/03/11 01:21:19;;;;;;;;;25.25;21.00;;;;;12.23;52.48;100968.41;5049249;28;45317;-70
2022/03/11 01:23:45;;;;;;;;;23.00;19.75;;;;;12.29;52.37;100954.00;5050299;28;45300;-70
2022/03/11 01:26:12;;;;;;;;;23.50;18.50;;;;;12.33;52.26;100952.88;5053560;28;45545;-70
2022/03/11 01:28:41;;;;;;;;;22.75;18.25;;;;;12.37;52.24;100959.63;5056480;28;45256;-71
2022/03/11 01:31:08;;;;;;;;;21.75;20.00;;;;;12.39;52.13;100957.75;5053616;28;46438;-71
2022/03/11 01:33:33;;;;;;;;;26.75;21.25;;;;;12.41;52.23;100950.59;5053508;28;45761;-70
2022/03/11 01:35:59;;;;;;;;;26.00;18.75;;;;;12.44;51.99;100954.81;5052930;28;45539;-70
2022/03/11 01:38:24;;;;;;;;;20.25;17.00;;;;;12.45;52.09;100946.78;5050305;28;45442;-70
2022/03/11 01:40:50;;;;;;;;;24.75;19.50;;;;;12.47;52.13;100947.53;5054628;28;45518;-71
2022/03/11 01:43:17;;;;;;;;;25.50;21.75;;;;;12.47;51.92;100946.69;5050872;28;45523;-71
2022/03/11 01:45:43;;;;;;;;;19.50;18.75;;;;;12.47;52.16;100946.69;5051657;28;45542;-71
2022/03/11 01:48:10;;;;;;;;;26.50;23.50;;;;;12.43;52.02;100945.19;5052209;28;45440;-71
2022/03/11 01:50:39;;;;;;;;;24.00;18.75;;;;;12.40;52.02;100937.44;5049564;28;45385;-71
2022/03/11 01:53:07;;;;;;;;;25.00;18.00;;;;;12.38;52.17;100928.78;5055579;28;45401;-71
2022/03/11 01:55:34;;;;;;;;;20.00;17.00;;;;;12.36;52.05;100928.03;5054263;28;45507;-71
2022/03/11 01:57:59;;;;;;;;;21.75;17.75;;;;;12.33;52.11;100921.16;5052867;28;46176;-71
2022/03/11 02:00:25;;;;;;;;;20.25;17.50;;;;;12.33;52.01;100920.31;5055152;28;45233;-71
2022/03/11 02:02:50;;;;;;;;;23.25;17.50;;;;;12.32;52.25;100914.16;5053562;28;45244;-71
2022/03/11 02:05:17;;;;;;;;;24.75;21.00;;;;;12.35;52.36;100916.63;5054907;28;45258;-71
2022/03/11 02:07:43;;;;;;;;;19.50;17.00;;;;;12.37;52.09;100916.53;5049741;28;46278;-71
2022/03/11 02:10:09;;;;;;;;;20.25;18.75;;;;;12.39;52.11;100915.47;5053717;28;45562;-71
2022/03/11 02:12:35;;;;;;;;;22.75;17.25;;;;;12.39;52.42;100923.41;5053583;28;45456;-71
2022/03/11 02:15:05;;;;;;;;;20.75;17.00;;;;;12.40;52.36;100914.56;5055921;28;45408;-71
2022/03/11 02:17:30;;;;;;;;;24.75;21.25;;;;;12.39;52.51;100911.97;5052655;28;45311;-71
2022/03/11 02:19:56;;;;;;;;;21.25;18.25;;;;;12.36;52.32;100913.03;5052768;28;45533;-72
2022/03/11 02:22:24;;;;;;;;;24.50;19.50;;;;;12.37;52.54;100921.81;5051011;28;45256;-72
2022/03/11 02:24:54;;;;;;;;;21.50;19.50;;;;;12.34;52.55;100912.28;5047518;28;45560;-71
2022/03/11 02:27:20;;;;;;;;;19.50;18.00;;;;;12.34;52.54;100919.38;5051309;28;45438;-71
2022/03/11 02:29:46;;;;;;;;;23.00;18.25;;;;;12.32;52.58;100908.03;5052812;28;45241;-71
2022/03/11 02:32:12;;;;;;;;;20.25;18.25;;;;;12.32;52.49;100910.69;5036064;28;45314;-71
2022/03/11 02:34:38;;;;;;;;;23.50;19.25;;;;;12.32;52.70;100905.41;5049917;28;45557;-72
2022/03/11 02:37:04;;;;;;;;;21.25;16.00;;;;;12.33;52.52;100907.13;5048670;28;46083;-71
2022/03/11 02:39:30;;;;;;;;;22.00;17.00;;;;;12.31;52.71;100901.91;5051476;28;45552;-71
2022/03/11 02:41:57;;;;;;;;;22.25;20.00;;;;;12.35;52.71;100902.56;5052029;28;45435;-72
2022/03/11 02:44:23;;;;;;;;;21.25;17.75;;;;;12.36;52.78;100889.25;5051250;28;45577;-71
2022/03/11 02:46:49;;;;;;;;;25.00;22.00;;;;;12.38;52.98;100895.28;5052687;28;45910;-71
2022/03/11 02:49:15;;;;;;;;;20.25;17.50;;;;;12.38;52.65;100890.00;5053708;28;45288;-71
2022/03/11 02:51:40;;;;;;;;;30.00;20.75;;;;;12.34;52.95;100888.53;5052948;28;45331;-71
2022/03/11 02:54:06;;;;;;;;;18.25;16.50;;;;;12.32;52.97;100877.19;5054581;28;45232;-71
2022/03/11 02:56:31;;;;;;;;;20.00;17.75;;;;;12.30;53.15;100877.28;5052252;28;45492;-71
2022/03/11 02:58:57;;;;;;;;;21.25;18.75;;;;;12.30;52.98;100877.28;5052253;28;45510;-71
2022/03/11 03:01:22;;;;;;;;;21.25;19.75;;;;;12.30;53.20;100881.72;5052987;28;45311;-71
2022/03/11 03:03:48;;;;;;;;;25.25;21.00;;;;;12.26;53.03;100874.97;5054750;28;45274;-72
2022/03/11 03:06:13;;;;;;;;;20.50;18.00;;;;;12.23;53.31;100867.22;5052608;28;45639;-71
2022/03/11 03:08:39;;;;;;;;;18.25;17.75;;;;;12.18;53.22;100869.31;5052971;28;45351;-71
2022/03/11 03:11:04;;;;;;;;;19.75;19.25;;;;;12.12;53.13;100861.78;5048843;28;45399;-71
2022/03/11 03:13:30;;;;;;;;;25.25;20.00;;;;;12.07;53.44;100867.34;5059457;28;45265;-71
2022/03/11 03:15:55;;;;;;;;;14.25;13.25;;;;;12.02;53.68;100864.16;5062217;28;46004;-71
2022/03/11 03:18:21;;;;;;;;;17.50;16.75;;;;;11.96;53.75;100861.91;5062082;28;45288;-71
2022/03/11 03:20:46;;;;;;;;;24.75;19.25;;;;;11.92;54.04;100855.09;5062495;28;45238;-71
2022/03/11 03:23:12;;;;;;;;;21.50;19.50;;;;;11.86;54.01;100850.25;5061863;28;45498;-71
2022/03/11 03:25:38;;;;;;;;;20.75;19.25;;;;;11.82;53.99;100844.28;5062221;28;45979;-70
2022/03/11 03:28:04;;;;;;;;;23.75;18.00;;;;;11.78;54.24;100836.66;5061984;28;45188;-71
2022/03/11 03:30:29;;;;;;;;;18.00;16.00;;;;;11.73;54.53;100827.22;5062219;28;45234;-71
2022/03/11 03:32:55;;;;;;;;;22.50;19.75;;;;;11.69;54.36;100833.63;5061961;28;45364;-71
2022/03/11 03:35:20;;;;;;;;;19.50;18.50;;;;;11.65;54.67;100831.28;5042317;28;45558;-72
2022/03/11 03:37:46;;;;;;;;;26.50;20.25;;;;;11.61;54.70;100833.25;5041528;28;45307;-71
2022/03/11 03:40:11;;;;;;;;;18.25;17.75;;;;;11.59;54.95;100823.72;5044435;28;45238;-71
2022/03/11 03:42:37;;;;;;;;;19.00;17.75;;;;;11.53;55.16;100835.50;5037307;28;45209;-71
2022/03/11 03:45:05;;;;;;;;;17.25;16.00;;;;;11.48;55.40;100831.47;5041613;28;45382;-71
2022/03/11 03:47:30;;;;;;;;;17.00;16.50;;;;;11.45;55.40;100836.00;5040384;28;45447;-71
2022/03/11 03:49:55;;;;;;;;;18.50;17.00;;;;;11.43;55.32;100834.38;5041503;28;45433;-71
2022/03/11 03:52:21;;;;;;;;;22.50;19.25;;;;;11.40;55.40;100829.31;5041344;28;45355;-71
2022/03/11 03:54:46;;;;;;;;;23.25;20.75;;;;;11.39;56.05;100840.81;5049426;28;45450;-71
2022/03/11 03:57:12;;;;;;;;;26.75;19.50;;;;;11.33;55.57;100834.09;5044438;28;45350;-71
2022/03/11 03:59:39;;;;;;;;;20.00;18.25;;;;;11.29;55.78;100826.44;5041679;28;45522;-71
2022/03/11 04:02:04;;;;;;;;;20.50;18.00;;;;;11.26;55.80;100829.28;5041347;28;45213;-72
2022/03/11 04:04:30;;;;;;;;;22.25;18.25;;;;;11.25;56.27;100824.97;5041360;28;46056;-71
2022/03/11 04:06:56;;;;;;;;;30.50;17.25;;;;;11.22;56.41;100815.47;5041141;28;45301;-71
2022/03/11 04:09:21;;;;;;;;;20.00;16.50;;;;;11.19;56.20;100813.84;5041392;28;45166;-71
2022/03/11 04:11:47;;;;;;;;;22.00;18.75;;;;;11.19;56.17;100821.75;5041469;28;45217;-72
2022/03/11 04:14:12;;;;;;;;;22.00;19.25;;;;;11.15;56.52;100827.31;5041215;28;45214;-71
2022/03/11 04:16:38;;;;;;;;;18.75;15.50;;;;;11.13;56.36;100822.09;5040625;28;45237;-71
2022/03/11 04:19:03;;;;;;;;;21.00;20.75;;;;;11.08;56.96;100816.28;5041202;28;45245;-71
2022/03/11 04:21:29;;;;;;;;;21.50;17.50;;;;;11.08;56.92;100812.78;5058353;28;45528;-71
2022/03/11 04:23:54;;;;;;;;;14.25;11.50;;;;;11.07;56.72;100811.09;5061394;28;45316;-70
2022/03/11 04:26:20;;;;;;;;;20.25;16.00;;;;;11.05;57.01;100797.16;5061103;28;45312;-71
2022/03/11 04:28:46;;;;;;;;;19.25;16.00;;;;;11.05;56.84;100799.78;5061281;28;45377;-71
2022/03/11 04:31:12;;;;;;;;;26.50;17.75;;;;;11.01;56.79;100793.88;5060928;28;45435;-71
2022/03/11 04:33:39;;;;;;;;;25.25;19.50;;;;;11.03;57.19;100806.94;5055818;28;46154;-71
2022/03/11 04:36:07;;;;;;;;;17.00;17.00;;;;;11.00;57.44;100802.72;5040848;28;45287;-71
2022/03/11 04:38:33;;;;;;;;;22.00;16.00;;;;;10.98;57.59;100812.50;5040978;28;45266;-71
2022/03/11 04:40:59;;;;;;;;;14.00;12.25;;;;;10.97;57.77;100805.50;5043854;28;45389;-71
2022/03/11 04:43:25;;;;;;;;;17.75;17.00;;;;;10.97;57.21;100815.22;5051067;28;46286;-72
2022/03/11 04:45:51;;;;;;;;;18.50;15.75;;;;;10.96;57.59;100810.88;5060707;28;45318;-71
2022/03/11 04:48:17;;;;;;;;;17.25;15.50;;;;;10.94;57.52;100810.13;5060786;28;45350;-71
2022/03/11 04:50:43;;;;;;;;;16.25;16.00;;;;;10.92;57.88;100810.22;5061034;28;45480;-71
2022/03/11 04:53:09;;;;;;;;;14.50;13.50;;;;;10.89;57.95;100807.75;5060580;28;45379;-71
2022/03/11 04:55:34;;;;;;;;;20.00;14.25;;;;;10.88;58.06;100809.56;5056728;28;45178;-71
2022/03/11 04:58:00;;;;;;;;;21.00;14.25;;;;;10.86;57.93;100805.31;5040801;28;45369;-71
2022/03/11 05:00:25;;;;;;;;;15.25;14.25;;;;;10.83;58.41;100809.00;5040489;28;45177;-72
2022/03/11 05:02:52;;;;;;;;;14.00;13.50;;;;;10.82;58.36;100796.75;5040312;28;45394;-72
2022/03/11 05:05:18;;;;;;;;;26.75;21.00;;;;;10.82;58.33;100787.97;5040427;28;45264;-71
2022/03/11 05:07:44;;;;;;;;;17.75;14.50;;;;;10.81;58.23;100781.03;5040517;28;45506;-71
2022/03/11 05:10:11;;;;;;;;;15.75;15.00;;;;;10.78;58.42;100797.03;5040630;28;45364;-72
2022/03/11 05:12:40;;;;;;;;;18.00;14.00;;;;;10.75;58.60;100799.84;5040572;28;45617;-72
2022/03/11 05:15:07;;;;;;;;;13.25;11.00;;;;;10.73;58.88;100796.44;5040359;28;45281;-71
2022/03/11 05:17:34;;;;;;;;;17.00;14.25;;;;;10.72;58.50;100792.94;5040776;28;45301;-71
2022/03/11 05:19:59;;;;;;;;;13.75;11.50;;;;;10.69;58.56;100790.50;5040341;28;45347;-71
2022/03/11 05:22:25;;;;;;;;;20.25;14.25;;;;;10.67;59.03;100792.41;5040073;28;45304;-71
2022/03/11 05:24:51;;;;;;;;;14.00;10.00;;;;;10.69;59.16;100781.75;5040166;28;45325;-71
2022/03/11 05:27:17;;;;;;;;;11.25;10.00;;;;;10.68;58.66;100793.25;5040530;28;45311;-71
2022/03/11 05:29:42;;;;;;;;;16.00;11.50;;;;;10.66;58.65;100774.03;5042820;28;45328;-72
2022/03/11 05:32:09;;;;;;;;;19.00;14.50;;;;;10.63;58.77;100775.91;5040300;28;45361;-72
2022/03/11 05:34:38;;;;;;;;;11.25;10.25;;;;;10.62;58.81;100776.00;5043713;28;45407;-72
2022/03/11 05:37:05;;;;;;;;;14.50;13.00;;;;;10.59;58.84;100774.41;5060135;28;45427;-71
2022/03/11 05:39:31;;;;;;;;;14.00;14.00;;;;;10.59;59.00;100766.50;5056208;28;45327;-72
2022/03/11 05:41:57;;;;;;;;;14.50;14.00;;;;;10.58;59.00;100771.84;5040225;28;45424;-71
2022/03/11 05:44:23;;;;;;;;;17.50;10.50;;;;;10.58;59.29;100758.66;5058209;28;45261;-71
2022/03/11 05:46:48;;;;;;;;;13.75;10.25;;;;;10.54;59.06;100757.16;5060320;28;45319;-71
2022/03/11 05:49:14;;;;;;;;;9.50;9.25;;;;;10.52;59.21;100753.78;5060065;28;45544;-71
2022/03/11 05:51:39;;;;;;;;;15.25;13.00;;;;;10.51;59.28;100755.56;5060096;28;46174;-72
2022/03/11 05:54:05;;;;;;;;;15.00;12.75;;;;;10.50;59.41;100751.22;5059448;28;45406;-72
2022/03/11 05:56:31;;;;;;;;;18.00;13.00;;;;;10.49;59.75;100752.16;5048585;28;45271;-72
2022/03/11 05:58:57;;;;;;;;;15.75;12.25;;;;;10.49;59.41;100749.53;5040102;28;45432;-72
2022/03/11 06:01:22;;;;;;;;;12.50;11.75;;;;;10.48;59.39;100750.47;5043210;28;45351;-71
2022/03/11 06:03:48;;;;;;;;;15.00;14.00;;;;;10.50;59.91;100753.84;5039338;28;45230;-72
2022/03/11 06:06:15;;;;;;;;;13.50;13.50;;;;;10.49;59.97;100752.16;5039800;28;45499;-72
2022/03/11 06:08:41;;;;;;;;;12.25;11.00;;;;;10.51;59.68;100749.44;5037069;28;45576;-72
2022/03/11 06:11:07;;;;;;;;;12.75;10.25;;;;;10.52;59.85;100746.72;5034904;28;45542;-71
2022/03/11 06:13:32;;;;;;;;;18.00;9.50;;;;;10.51;60.02;100758.19;5051459;28;45527;-72
2022/03/11 06:15:58;;;;;;;;;11.00;11.00;;;;;10.54;59.57;100751.91;5050652;28;45615;-71
2022/03/11 06:18:23;;;;;;;;;13.00;10.75;;;;;10.56;59.64;100760.56;5052536;28;45420;-74
2022/03/11 06:20:49;;;;;;;;;13.50;9.75;;;;;10.56;59.95;100757.91;5049330;28;45966;-73
2022/03/11 06:23:14;;;;;;;;;12.50;9.00;;;;;10.56;59.61;100758.75;5054000;28;45351;-73
2022/03/11 06:25:42;;;;;;;;;13.50;9.75;;;;;10.58;59.92;100750.75;5055054;28;45245;-72
2022/03/11 06:28:08;;;;;;;;;8.50;7.75;;;;;10.55;59.86;100738.63;5051264;28;45239;-75
2022/03/11 06:30:33;;;;;;;;;14.75;10.25;;;;;10.56;59.77;100750.84;5046123;28;45449;-74
2022/03/11 06:32:59;;;;;;;;;12.50;9.25;;;;;10.59;59.86;100747.22;5044856;28;45451;-73
2022/03/11 06:35:24;;;;;;;;;13.75;9.25;;;;;10.61;60.11;100746.19;5040833;28;45405;-73
2022/03/11 06:37:50;;;;;;;;;13.00;10.50;;;;;10.67;59.57;100744.97;5050347;28;45420;-74
2022/03/11 06:40:16;;;;;;;;;15.00;9.25;;;;;10.73;59.72;100744.59;5053112;28;45941;-68
2022/03/11 06:42:44;;;;;;;;;10.25;10.25;;;;;10.80;59.57;100739.81;5049972;28;45510;-67
2022/03/11 06:45:11;;;;;;;;;11.00;10.50;;;;;10.86;59.29;100740.28;5052301;28;45434;-68
2022/03/11 06:47:37;;;;;;;;;9.00;8.00;;;;;10.94;59.17;100745.09;5045122;28;45603;-68
2022/03/11 06:50:04;;;;;;;;;8.50;8.50;;;;;11.01;59.45;100733.25;5049544;28;45913;-68
2022/03/11 06:52:30;;;;;;;;;14.25;7.00;;;;;11.07;59.14;100732.88;5046084;28;45461;-69
2022/03/11 06:54:55;;;;;;;;;15.75;14.25;;;;;11.14;59.24;100728.91;5050964;28;45417;-68
2022/03/11 06:57:21;;;;;;;;;14.00;9.50;;;;;11.17;59.15;100728.72;5046654;28;45489;-68
2022/03/11 06:59:48;;;;;;;;;10.50;8.50;;;;;11.25;58.92;100730.88;5041706;28;46246;-69
2022/03/11 07:02:14;;;;;;;;;10.75;8.50;;;;;11.32;58.81;100726.91;5061879;28;45281;-69
2022/03/11 07:04:41;;;;;;;;;7.50;5.00;;;;;11.37;58.68;100726.63;5052622;28;45439;-68
2022/03/11 07:07:07;;;;;;;;;10.25;9.00;;;;;11.40;58.62;100719.38;5041819;28;45497;-68
2022/03/11 07:09:33;;;;;;;;;8.75;8.00;;;;;11.44;58.12;100717.38;5051841;28;45269;-66
2022/03/11 07:12:01;;;;;;;;;11.50;9.75;;;;;11.46;58.38;100720.78;5067568;28;45426;-68
2022/03/11 07:14:35;;;;;;;;;9.75;9.50;;;;;11.45;58.08;100725.22;5044413;28;45363;-68
2022/03/11 07:17:01;;;;;;;;;11.25;10.50;;;;;11.47;58.25;100725.13;5046745;28;45512;-67
2022/03/11 07:19:27;;;;;;;;;11.50;8.25;;;;;11.51;58.18;100716.03;5042047;28;45716;-67
2022/03/11 07:21:56;;;;;;;;;10.25;8.00;;;;;11.54;58.13;100717.66;5040089;28;45429;-67
2022/03/11 07:24:22;;;;;;;;;11.25;8.00;;;;;11.56;57.89;100718.41;5040761;28;45170;-68
2022/03/11 07:26:47;;;;;;;;;9.00;7.50;;;;;11.59;58.00;100712.91;5041806;28;45284;-67
2022/03/11 07:29:13;;;;;;;;;7.75;7.00;;;;;11.61;58.04;100711.03;5057639;28;45427;-67
2022/03/11 07:31:38;;;;;;;;;15.75;8.50;;;;;11.64;57.89;100706.41;5041163;28;45271;-67
2022/03/11 07:34:04;;;;;;;;;9.00;9.00;;;;;11.68;58.12;100705.25;5041231;28;45285;-67
2022/03/11 07:36:32;;;;;;;;;14.50;10.75;;;;;11.71;57.63;100715.63;5041343;28;45242;-67
2022/03/11 07:38:57;;;;;;;;;11.00;6.25;;;;;11.70;57.88;100703.38;5042690;28;46644;-68
2022/03/11 07:41:26;;;;;;;;;8.25;7.75;;;;;11.76;57.82;100699.47;5048063;28;45404;-67
2022/03/11 07:43:51;;;;;;;;;6.75;6.75;;;;;11.82;57.65;100704.41;5040695;28;45410;-67
2022/03/11 07:46:16;;;;;;;;;9.75;8.75;;;;;11.88;57.63;100706.66;5040700;28;45457;-68
2022/03/11 07:48:42;;;;;;;;;10.00;8.00;;;;;11.93;57.24;100707.22;5040569;28;45430;-67
2022/03/11 07:51:08;;;;;;;;;9.00;6.50;;;;;11.97;56.95;100700.75;5040698;28;45341;-67
2022/03/11 07:53:35;;;;;;;;;7.50;7.00;;;;;12.01;57.06;100689.06;5040327;28;45540;-67
2022/03/11 07:56:01;;;;;;;;;11.00;8.00;;;;;12.07;56.82;100687.78;5047548;28;45374;-68
2022/03/11 07:58:27;;;;;;;;;6.50;6.25;;;;;12.10;56.91;100690.25;5040966;28;46058;-67
2022/03/11 08:00:52;;;;;;;;;9.25;6.75;;;;;12.14;56.71;100683.81;5045060;28;45356;-67
2022/03/11 08:03:19;;;;;;;;;6.75;6.25;;;;;12.18;56.61;100690.59;5056705;28;45561;-68
2022/03/11 08:05:45;;;;;;;;;9.75;7.75;;;;;12.22;56.39;100688.56;5065763;28;45633;-68
2022/03/11 08:08:11;;;;;;;;;11.25;10.00;;;;;12.26;56.43;100687.44;5042466;28;45981;-67
2022/03/11 08:10:37;;;;;;;;;6.25;6.25;;;;;12.30;56.24;100676.53;5044355;28;45535;-67
2022/03/11 08:13:06;;;;;;;;;11.00;7.75;;;;;12.35;56.28;100676.25;5046597;28;45733;-68
2022/03/11 08:15:31;;;;;;;;;10.50;7.50;;;;;12.41;56.03;100685.56;5061141;28;45335;-68
2022/03/11 08:17:57;;;;;;;;;10.25;5.50;;;;;12.48;56.04;100681.53;5045573;28;46091;-67
2022/03/11 08:20:22;;;;;;;;;5.25;5.25;;;;;12.64;55.98;100687.47;5040800;28;45218;-69
2022/03/11 08:22:51;;;;;;;;;8.00;6.00;;;;;12.76;55.58;100673.41;5040320;28;45312;-67
2022/03/11 08:25:18;;;;;;;;;8.25;5.50;;;;;12.89;55.55;100676.06;5041220;28;45194;-67
2022/03/11 08:27:43;;;;;;;;;8.50;6.00;;;;;12.96;55.26;100669.38;5047156;28;46137;-67
2022/03/11 08:30:10;;;;;;;;;7.75;6.50;;;;;13.04;55.00;100659.13;5060739;28;45429;-67
2022/03/11 08:32:37;;;;;;;;;5.00;5.00;;;;;13.13;54.82;100669.03;5060681;28;45464;-67
2022/03/11 08:35:03;;;;;;;;;9.75;6.00;;;;;13.23;54.44;100658.66;5042413;28;45379;-67
2022/03/11 08:37:28;;;;;;;;;7.25;5.25;;;;;13.33;54.86;100659.69;5040550;28;45488;-67
2022/03/11 08:39:54;;;;;;;;;;;;;;;13.40;54.07;100654.81;5053625;28;45432;-67
2022/03/11 08:42:19;;;;;;;;;7.00;6.75;;;;;13.54;53.83;100641.44;5040695;28;45487;-68
2022/03/11 08:44:45;;;;;;;;;10.25;8.00;;;;;13.62;53.25;100639.06;5041037;28;45513;-67
2022/03/11 08:47:10;;;;;;;;;3.75;3.00;;;;;13.72;53.39;100633.91;5040092;28;45527;-67
2022/03/11 08:49:36;;;;;;;;;6.00;6.00;;;;;13.77;53.11;100642.38;5040260;28;45344;-68
2022/03/11 08:52:02;;;;;;;;;11.75;6.50;;;;;13.83;53.15;100641.94;5040142;28;45324;-67
2022/03/11 08:54:27;;;;;;;;;5.50;5.00;;;;;13.85;52.86;100640.00;5039625;28;45490;-67
2022/03/11 08:56:54;;;;;;;;;5.00;5.00;;;;;13.87;52.78;100640.72;5040251;28;45234;-67
2022/03/11 08:59:20;;;;;;;;;5.00;5.00;;;;;13.90;52.93;100634.34;5040451;28;45432;-69
2022/03/11 09:01:46;;;;;;;;;7.25;4.00;;;;;13.97;52.43;100632.94;5040233;28;45537;-67
2022/03/11 09:04:12;;;;;;;;;4.25;3.75;;;;;13.98;52.42;100639.91;5040023;28;45324;-67
2022/03/11 09:06:37;;;;;;;;;4.25;4.25;;;;;13.99;52.47;100641.63;5045656;28;45330;-67
2022/03/11 09:09:06;;;;;;;;;5.00;4.50;;;;;14.05;52.32;100641.16;5050483;28;45460;-67
2022/03/11 09:11:32;;;;;;;;;6.25;4.00;;;;;14.08;52.34;100635.63;5060563;28;45203;-68
2022/03/11 09:13:58;;;;;;;;;7.25;4.00;;;;;14.13;52.14;100629.97;5060276;28;45356;-68
2022/03/11 09:16:23;;;;;;;;;4.50;4.50;;;;;14.24;51.92;100630.03;5059876;28;46194;-67
2022/03/11 09:18:49;;;;;;;;;3.50;3.25;;;;;14.37;51.68;100614.00;5060515;28;45221;-67
2022/03/11 09:21:14;;;;;;;;;5.75;4.00;;;;;14.44;51.56;100613.41;5060256;28;45334;-67
2022/03/11 09:23:40;;;;;;;;;3.75;3.50;;;;;14.44;51.52;100616.06;5059861;28;45694;-67
2022/03/11 09:26:06;;;;;;;;;3.50;3.50;;;;;14.47;51.38;100617.69;5059844;28;45468;-67
2022/03/11 09:28:31;;;;;;;;;18.50;17.25;;;;;14.54;51.43;100623.38;5060066;28;45343;-67
2022/03/11 09:30:57;;;;;;;;;16.25;12.00;;;;;14.57;51.41;100621.31;5060247;28;45495;-67
2022/03/11 09:33:23;;;;;;;;;11.00;7.00;;;;;14.63;51.09;100617.34;5057391;28;45474;-67
2022/03/11 09:35:48;;;;;;;;;8.50;7.75;;;;;14.71;50.93;100609.63;5039558;28;45336;-67
2022/03/11 09:38:14;;;;;;;;;4.50;3.25;;;;;14.80;50.70;100614.22;5039741;28;45382;-67
2022/03/11 09:40:43;;;;;;;;;4.50;3.00;;;;;14.90;50.71;100616.97;5053227;28;45317;-67
2022/03/11 09:43:11;;;;;;;;;4.50;3.25;;;;;14.96;50.41;100616.50;5040103;28;45408;-67
2022/03/11 09:45:37;;;;;;;;;4.50;3.00;;;;;15.00;50.22;100621.41;5039266;28;45404;-67
2022/03/11 09:48:04;;;;;;;;;3.75;3.75;;;;;15.06;50.17;100609.47;5043095;28;45506;-67
2022/03/11 09:50:30;;;;;;;;;5.75;4.75;;;;;15.21;49.90;100618.84;5043230;28;45249;-67
2022/03/11 09:52:57;;;;;;;;;3.25;3.00;;;;;15.30;49.55;100612.81;5042618;28;45447;-67
2022/03/11 09:55:22;;;;;;;;;5.00;4.75;;;;;15.32;49.48;100612.66;5042668;28;45382;-68
2022/03/11 09:57:48;;;;;;;;;3.50;3.50;;;;;15.27;49.43;100610.41;5043291;28;45226;-68
2022/03/11 10:00:14;;;;;;;;;3.25;3.25;;;;;15.24;49.43;100600.03;5043122;28;45475;-67
2022/03/11 10:02:45;;;;;;;;;4.75;4.50;;;;;15.27;49.40;100601.59;5043329;28;45336;-68
2022/03/11 10:05:10;;;;;;;;;4.75;4.25;;;;;15.32;49.13;100592.31;5042434;28;45277;-68
2022/03/11 10:07:36;;;;;;;;;5.75;4.00;;;;;15.36;49.34;100599.03;5050864;28;45166;-68
2022/03/11 10:10:19;;;;;;;;;3.00;3.00;;;;;15.43;49.06;100591.44;5061163;28;45356;-68
2022/03/11 10:12:46;;;;;;;;;2.75;2.75;;;;;15.41;48.76;100588.06;5063400;28;45202;-67
2022/03/11 10:15:14;;;;;;;;;4.50;3.75;;;;;15.34;48.86;100581.56;5062902;28;46668;-68
2022/03/11 10:17:40;;;;;;;;;5.50;4.25;;;;;15.26;49.35;100550.34;5062986;28;45426;-67
2022/03/11 10:20:11;;;;;;;;;4.00;4.00;;;;;15.17;49.72;100532.53;5063077;28;45327;-67
2022/03/11 10:22:40;;;;;;;;;6.00;3.75;;;;;15.06;50.12;100562.56;5062854;28;45217;-67
2022/03/11 10:25:28;;;;;;;;;7.00;4.00;;;;;14.99;50.86;100577.28;5062561;28;45563;-68
2022/03/11 10:27:58;;;;;;;;;5.33;4.00;;;;;15.02;50.64;100584.19;5062547;28;45328;-67
2022/03/11 10:30:26;;;;;;;;;2.50;2.50;;;;;15.11;50.15;100569.31;5062768;28;45229;-67
2022/03/11 10:32:53;;;;;;;;;4.00;3.00;;;;;15.25;50.64;100569.06;5062711;28;45590;-67
2022/03/11 10:35:19;;;;;;;;;7.25;4.25;;;;;15.44;50.18;100563.06;5043199;28;45325;-67
2022/03/11 10:37:59;;;;;;;;;4.00;3.25;;;;;15.55;49.73;100563.84;5042054;28;45328;-67
2022/03/11 10:40:26;;;;;;;;;4.00;2.00;;;;;15.63;49.58;100561.44;5055634;28;45363;-68
2022/03/11 10:43:10;;;;;;;;;5.75;4.00;;;;;15.74;49.65;100559.72;5029612;28;45396;-68
2022/03/11 10:45:46;;;;;;;;;6.50;4.75;;;;;15.83;49.40;100580.19;5059744;28;45510;-67
2022/03/11 10:48:12;;;;;;;;;4.00;2.00;;;;;15.84;49.16;100596.00;5061785;28;45401;-67
2022/03/11 10:50:38;;;;;;;;;2.25;2.25;;;;;15.80;49.31;100597.25;5062582;28;45349;-67
2022/03/11 10:53:08;;;;;;;;;3.75;2.75;;;;;15.69;49.02;100583.16;5061853;28;45490;-67
2022/03/11 10:55:34;;;;;;;;;4.75;3.00;;;;;15.54;49.27;100580.75;5062254;28;45623;-67
2022/03/11 10:58:03;;;;;;;;;4.00;4.00;;;;;15.49;49.32;100566.19;5061650;28;45352;-67
2022/03/11 11:00:32;;;;;;;;;3.75;3.00;;;;;15.41;50.04;100550.91;5062475;28;45324;-67
2022/03/11 11:03:04;;;;;;;;;3.75;3.75;;;;;15.34;51.26;100585.06;5061143;28;45558;-67
2022/03/11 11:05:32;;;;;;;;;7.00;3.75;;;;;15.33;51.54;100603.78;5062401;28;45401;-67
2022/03/11 11:08:00;;;;;;;;;7.00;5.75;;;;;15.31;52.50;100609.19;5048790;28;45191;-67
2022/03/11 11:10:27;;;;;;;;;4.25;4.00;;;;;15.32;52.54;100610.88;5062251;28;45383;-67